sensor_id;sensor_type;location;lat;lon;timestamp;temperature;humidity
40822;DHT22;26542;50.836;5.356;2022-09-06T00:00:33;20.80;99.90
40822;DHT22;26542;50.836;5.356;2022-09-06T00:02:59;20.80;99.90
40822;DHT22;26542;50.836;5.356;2022-09-06T00:05:27;20.80;99.90
40822;DHT22;26542;50.836;5.356;2022-09-06T00:07:53;20.80;99.90
40822;DHT22;26542;50.836;5.356;2022-09-06T00:10:18;20.80;99.90
40822;DHT22;26542;50.836;5.356;2022-09-06T00:12:46;20.80;99.90
40822;DHT22;26542;50.836;5.356;2022-09-06T00:15:12;20.70;99.90
40822;DHT22;26542;50.836;5.356;2022-09-06T00:17:41;20.70;99.90
40822;DHT22;26542;50.836;5.356;2022-09-06T00:20:09;20.70;99.90
40822;DHT22;26542;50.836;5.356;2022-09-06T00:22:36;20.70;99.90
40822;DHT22;26542;50.836;5.356;2022-09-06T00:25:04;20.70;99.90
40822;DHT22;26542;50.836;5.356;2022-09-06T00:27:31;20.70;99.90
40822;DHT22;26542;50.836;5.356;2022-09-06T00:30:21;20.70;99.90
40822;DHT22;26542;50.836;5.356;2022-09-06T00:32:49;20.60;99.90
40822;DHT22;26542;50.836;5.356;2022-09-06T00:35:15;20.40;99.90
40822;DHT22;26542;50.836;5.356;2022-09-06T00:37:43;20.20;99.90
40822;DHT22;26542;50.836;5.356;2022-09-06T00:40:10;20.00;99.90
40822;DHT22;26542;50.836;5.356;2022-09-06T00:42:35;19.90;99.90
40822;DHT22;26542;50.836;5.356;2022-09-06T00:45:02;19.90;99.90
40822;DHT22;26542;50.836;5.356;2022-09-06T00:47:29;19.90;99.90
40822;DHT22;26542;50.836;5.356;2022-09-06T00:49:58;19.80;99.90
40822;DHT22;26542;50.836;5.356;2022-09-06T00:52:25;19.80;99.90
40822;DHT22;26542;50.836;5.356;2022-09-06T00:54:52;19.70;99.90
40822;DHT22;26542;50.836;5.356;2022-09-06T00:57:18;19.70;99.90
40822;DHT22;26542;50.836;5.356;2022-09-06T00:59:45;19.80;99.90
40822;DHT22;26542;50.836;5.356;2022-09-06T01:02:11;19.80;99.90
40822;DHT22;26542;50.836;5.356;2022-09-06T01:04:39;19.80;99.90
40822;DHT22;26542;50.836;5.356;2022-09-06T01:15:11;19.90;99.90
40822;DHT22;26542;50.836;5.356;2022-09-06T01:20:57;19.80;99.90
40822;DHT22;26542;50.836;5.356;2022-09-06T01:26:04;19.80;99.90
40822;DHT22;26542;50.836;5.356;2022-09-06T01:28:43;19.80;99.90
40822;DHT22;26542;50.836;5.356;2022-09-06T01:36:21;19.70;99.90
40822;DHT22;26542;50.836;5.356;2022-09-06T01:38:48;19.50;99.90
40822;DHT22;26542;50.836;5.356;2022-09-06T01:41:16;19.50;99.90
40822;DHT22;26542;50.836;5.356;2022-09-06T01:43:46;19.50;99.90
40822;DHT22;26542;50.836;5.356;2022-09-06T01:52:18;19.50;99.90
40822;DHT22;26542;50.836;5.356;2022-09-06T02:00:07;19.30;99.90
40822;DHT22;26542;50.836;5.356;2022-09-06T02:02:47;19.40;99.90
40822;DHT22;26542;50.836;5.356;2022-09-06T02:05:35;19.20;99.90
40822;DHT22;26542;50.836;5.356;2022-09-06T02:08:14;19.10;99.90
40822;DHT22;26542;50.836;5.356;2022-09-06T02:10:59;19.10;99.90
40822;DHT22;26542;50.836;5.356;2022-09-06T02:13:31;19.00;99.90
40822;DHT22;26542;50.836;5.356;2022-09-06T02:16:03;19.10;99.90
40822;DHT22;26542;50.836;5.356;2022-09-06T02:18:35;19.00;99.90
40822;DHT22;26542;50.836;5.356;2022-09-06T02:21:03;19.10;99.90
40822;DHT22;26542;50.836;5.356;2022-09-06T02:23:32;19.00;99.90
40822;DHT22;26542;50.836;5.356;2022-09-06T02:26:08;19.00;99.90
40822;DHT22;26542;50.836;5.356;2022-09-06T02:28:35;19.00;99.90
40822;DHT22;26542;50.836;5.356;2022-09-06T02:31:04;18.90;99.90
40822;DHT22;26542;50.836;5.356;2022-09-06T02:33:33;18.90;99.90
40822;DHT22;26542;50.836;5.356;2022-09-06T02:36:07;19.00;99.90
40822;DHT22;26542;50.836;5.356;2022-09-06T02:38:36;18.90;99.90
40822;DHT22;26542;50.836;5.356;2022-09-06T02:41:03;19.00;99.90
40822;DHT22;26542;50.836;5.356;2022-09-06T02:43:29;18.90;99.90
40822;DHT22;26542;50.836;5.356;2022-09-06T02:45:55;18.90;99.90
40822;DHT22;26542;50.836;5.356;2022-09-06T02:48:21;18.90;99.90
40822;DHT22;26542;50.836;5.356;2022-09-06T02:50:46;19.00;99.90
40822;DHT22;26542;50.836;5.356;2022-09-06T02:53:14;18.90;99.90
40822;DHT22;26542;50.836;5.356;2022-09-06T02:55:40;18.90;99.90
40822;DHT22;26542;50.836;5.356;2022-09-06T02:58:07;18.80;99.90
40822;DHT22;26542;50.836;5.356;2022-09-06T03:00:33;18.90;99.90
40822;DHT22;26542;50.836;5.356;2022-09-06T03:02:59;18.90;99.90
40822;DHT22;26542;50.836;5.356;2022-09-06T03:05:26;18.90;99.90
40822;DHT22;26542;50.836;5.356;2022-09-06T03:07:52;18.90;99.90
40822;DHT22;26542;50.836;5.356;2022-09-06T03:10:19;18.90;99.90
40822;DHT22;26542;50.836;5.356;2022-09-06T03:12:48;18.90;99.90
40822;DHT22;26542;50.836;5.356;2022-09-06T03:15:15;19.00;99.90
40822;DHT22;26542;50.836;5.356;2022-09-06T03:17:41;18.90;99.90
40822;DHT22;26542;50.836;5.356;2022-09-06T03:20:08;18.90;99.90
40822;DHT22;26542;50.836;5.356;2022-09-06T03:22:38;18.80;99.90
40822;DHT22;26542;50.836;5.356;2022-09-06T03:25:08;18.90;99.90
40822;DHT22;26542;50.836;5.356;2022-09-06T03:27:34;18.80;99.90
40822;DHT22;26542;50.836;5.356;2022-09-06T03:30:00;18.80;99.90
40822;DHT22;26542;50.836;5.356;2022-09-06T03:32:26;18.80;99.90
40822;DHT22;26542;50.836;5.356;2022-09-06T03:34:52;18.80;99.90
40822;DHT22;26542;50.836;5.356;2022-09-06T03:37:20;18.80;99.90
40822;DHT22;26542;50.836;5.356;2022-09-06T03:39:45;18.80;99.90
40822;DHT22;26542;50.836;5.356;2022-09-06T03:42:11;18.90;99.90
40822;DHT22;26542;50.836;5.356;2022-09-06T03:44:40;18.90;99.90
40822;DHT22;26542;50.836;5.356;2022-09-06T03:47:06;18.90;99.90
40822;DHT22;26542;50.836;5.356;2022-09-06T03:49:32;18.90;99.90
40822;DHT22;26542;50.836;5.356;2022-09-06T03:52:00;18.90;99.90
40822;DHT22;26542;50.836;5.356;2022-09-06T03:54:26;18.90;99.90
40822;DHT22;26542;50.836;5.356;2022-09-06T03:56:53;18.90;99.90
40822;DHT22;26542;50.836;5.356;2022-09-06T03:59:19;18.90;99.90
40822;DHT22;26542;50.836;5.356;2022-09-06T04:01:44;18.90;99.90
40822;DHT22;26542;50.836;5.356;2022-09-06T04:04:10;18.80;99.90
40822;DHT22;26542;50.836;5.356;2022-09-06T04:06:36;18.80;99.90
40822;DHT22;26542;50.836;5.356;2022-09-06T04:09:02;18.70;99.90
40822;DHT22;26542;50.836;5.356;2022-09-06T04:11:27;18.70;99.90
40822;DHT22;26542;50.836;5.356;2022-09-06T04:13:53;18.70;99.90
40822;DHT22;26542;50.836;5.356;2022-09-06T04:16:19;18.70;99.90
40822;DHT22;26542;50.836;5.356;2022-09-06T04:18:44;18.60;99.90
40822;DHT22;26542;50.836;5.356;2022-09-06T04:21:10;18.60;99.90
40822;DHT22;26542;50.836;5.356;2022-09-06T04:23:36;18.60;99.90
40822;DHT22;26542;50.836;5.356;2022-09-06T04:26:02;18.70;99.90
40822;DHT22;26542;50.836;5.356;2022-09-06T04:28:31;18.60;99.90
40822;DHT22;26542;50.836;5.356;2022-09-06T04:31:08;18.60;99.90
40822;DHT22;26542;50.836;5.356;2022-09-06T04:33:36;18.60;99.90
40822;DHT22;26542;50.836;5.356;2022-09-06T04:36:05;18.60;99.90
40822;DHT22;26542;50.836;5.356;2022-09-06T04:38:35;18.50;99.90
40822;DHT22;26542;50.836;5.356;2022-09-06T04:41:02;18.50;99.90
40822;DHT22;26542;50.836;5.356;2022-09-06T04:43:28;18.50;99.90
40822;DHT22;26542;50.836;5.356;2022-09-06T04:45:53;18.40;99.90
40822;DHT22;26542;50.836;5.356;2022-09-06T04:48:19;18.40;99.90
40822;DHT22;26542;50.836;5.356;2022-09-06T04:50:45;18.30;99.90
40822;DHT22;26542;50.836;5.356;2022-09-06T04:53:10;18.30;99.90
40822;DHT22;26542;50.836;5.356;2022-09-06T04:55:38;18.30;99.90
40822;DHT22;26542;50.836;5.356;2022-09-06T04:58:05;18.30;99.90
40822;DHT22;26542;50.836;5.356;2022-09-06T05:00:32;18.30;99.90
40822;DHT22;26542;50.836;5.356;2022-09-06T05:02:58;18.20;99.90
40822;DHT22;26542;50.836;5.356;2022-09-06T05:05:24;18.20;99.90
40822;DHT22;26542;50.836;5.356;2022-09-06T05:07:54;18.20;99.90
40822;DHT22;26542;50.836;5.356;2022-09-06T05:10:23;18.20;99.90
40822;DHT22;26542;50.836;5.356;2022-09-06T05:12:51;18.20;99.90
40822;DHT22;26542;50.836;5.356;2022-09-06T05:15:18;18.10;99.90
40822;DHT22;26542;50.836;5.356;2022-09-06T05:20:57;18.00;99.90
40822;DHT22;26542;50.836;5.356;2022-09-06T05:23:27;17.90;99.90
40822;DHT22;26542;50.836;5.356;2022-09-06T05:29:26;17.90;99.90
40822;DHT22;26542;50.836;5.356;2022-09-06T05:31:52;17.90;99.90
40822;DHT22;26542;50.836;5.356;2022-09-06T05:34:22;17.90;99.90
40822;DHT22;26542;50.836;5.356;2022-09-06T05:36:48;17.90;99.90
40822;DHT22;26542;50.836;5.356;2022-09-06T05:39:13;18.00;99.90
40822;DHT22;26542;50.836;5.356;2022-09-06T05:41:39;18.00;99.90
40822;DHT22;26542;50.836;5.356;2022-09-06T05:44:08;18.10;99.90
40822;DHT22;26542;50.836;5.356;2022-09-06T05:46:43;18.10;99.90
40822;DHT22;26542;50.836;5.356;2022-09-06T05:49:11;18.10;99.90
40822;DHT22;26542;50.836;5.356;2022-09-06T05:51:37;18.10;99.90
40822;DHT22;26542;50.836;5.356;2022-09-06T05:54:06;18.20;99.90
40822;DHT22;26542;50.836;5.356;2022-09-06T05:56:32;18.20;99.90
40822;DHT22;26542;50.836;5.356;2022-09-06T05:59:04;18.20;99.90
40822;DHT22;26542;50.836;5.356;2022-09-06T06:01:33;18.20;99.90
40822;DHT22;26542;50.836;5.356;2022-09-06T06:04:04;18.30;99.90
40822;DHT22;26542;50.836;5.356;2022-09-06T06:06:35;18.30;99.90
40822;DHT22;26542;50.836;5.356;2022-09-06T06:09:01;18.30;99.90
40822;DHT22;26542;50.836;5.356;2022-09-06T06:11:29;18.40;99.90
40822;DHT22;26542;50.836;5.356;2022-09-06T06:13:55;18.50;99.90
40822;DHT22;26542;50.836;5.356;2022-09-06T06:16:23;18.60;99.90
40822;DHT22;26542;50.836;5.356;2022-09-06T06:18:50;18.60;99.90
40822;DHT22;26542;50.836;5.356;2022-09-06T06:21:17;18.80;99.90
40822;DHT22;26542;50.836;5.356;2022-09-06T06:23:44;19.00;99.90
40822;DHT22;26542;50.836;5.356;2022-09-06T06:26:11;19.10;99.90
40822;DHT22;26542;50.836;5.356;2022-09-06T06:28:38;19.20;99.90
40822;DHT22;26542;50.836;5.356;2022-09-06T06:31:08;19.30;99.90
40822;DHT22;26542;50.836;5.356;2022-09-06T06:33:33;19.40;99.90
40822;DHT22;26542;50.836;5.356;2022-09-06T06:36:19;19.50;99.90
40822;DHT22;26542;50.836;5.356;2022-09-06T06:38:50;19.50;99.90
40822;DHT22;26542;50.836;5.356;2022-09-06T06:41:24;19.60;99.90
40822;DHT22;26542;50.836;5.356;2022-09-06T06:43:58;19.80;99.90
40822;DHT22;26542;50.836;5.356;2022-09-06T06:46:27;20.00;99.90
40822;DHT22;26542;50.836;5.356;2022-09-06T06:49:16;20.10;99.90
40822;DHT22;26542;50.836;5.356;2022-09-06T06:51:42;20.20;99.90
40822;DHT22;26542;50.836;5.356;2022-09-06T06:54:10;20.20;99.90
40822;DHT22;26542;50.836;5.356;2022-09-06T06:56:38;20.30;99.90
40822;DHT22;26542;50.836;5.356;2022-09-06T06:59:09;20.40;99.90
40822;DHT22;26542;50.836;5.356;2022-09-06T07:01:37;20.50;99.90
40822;DHT22;26542;50.836;5.356;2022-09-06T07:04:04;20.60;99.90
40822;DHT22;26542;50.836;5.356;2022-09-06T07:06:30;20.80;99.90
40822;DHT22;26542;50.836;5.356;2022-09-06T07:08:57;20.80;99.90
40822;DHT22;26542;50.836;5.356;2022-09-06T07:11:25;20.90;99.90
40822;DHT22;26542;50.836;5.356;2022-09-06T07:13:53;21.00;99.90
40822;DHT22;26542;50.836;5.356;2022-09-06T07:16:22;21.00;99.90
40822;DHT22;26542;50.836;5.356;2022-09-06T07:18:52;21.10;99.90
40822;DHT22;26542;50.836;5.356;2022-09-06T07:21:23;21.20;99.90
40822;DHT22;26542;50.836;5.356;2022-09-06T07:23:53;21.30;99.90
40822;DHT22;26542;50.836;5.356;2022-09-06T07:26:25;21.30;99.90
40822;DHT22;26542;50.836;5.356;2022-09-06T07:28:52;21.40;99.90
40822;DHT22;26542;50.836;5.356;2022-09-06T07:31:18;21.50;99.50
40822;DHT22;26542;50.836;5.356;2022-09-06T07:33:44;21.60;99.90
40822;DHT22;26542;50.836;5.356;2022-09-06T07:36:10;21.70;99.90
40822;DHT22;26542;50.836;5.356;2022-09-06T07:38:36;21.70;99.40
40822;DHT22;26542;50.836;5.356;2022-09-06T07:41:07;21.80;99.40
40822;DHT22;26542;50.836;5.356;2022-09-06T07:43:35;21.90;99.90
40822;DHT22;26542;50.836;5.356;2022-09-06T07:46:15;22.00;99.90
40822;DHT22;26542;50.836;5.356;2022-09-06T07:48:43;22.10;99.70
40822;DHT22;26542;50.836;5.356;2022-09-06T07:51:16;22.20;99.20
40822;DHT22;26542;50.836;5.356;2022-09-06T07:53:50;22.30;98.90
40822;DHT22;26542;50.836;5.356;2022-09-06T07:56:18;22.50;98.90
40822;DHT22;26542;50.836;5.356;2022-09-06T07:58:47;22.60;98.40
40822;DHT22;26542;50.836;5.356;2022-09-06T08:01:30;22.60;98.00
40822;DHT22;26542;50.836;5.356;2022-09-06T08:03:58;22.80;98.30
40822;DHT22;26542;50.836;5.356;2022-09-06T08:06:25;22.90;97.30
40822;DHT22;26542;50.836;5.356;2022-09-06T08:08:51;22.90;97.70
40822;DHT22;26542;50.836;5.356;2022-09-06T08:11:17;23.00;97.00
40822;DHT22;26542;50.836;5.356;2022-09-06T08:13:46;23.20;97.10
40822;DHT22;26542;50.836;5.356;2022-09-06T08:16:12;23.30;96.30
40822;DHT22;26542;50.836;5.356;2022-09-06T08:18:39;23.40;96.90
40822;DHT22;26542;50.836;5.356;2022-09-06T08:21:26;23.60;96.80
40822;DHT22;26542;50.836;5.356;2022-09-06T08:24:01;23.60;95.60
40822;DHT22;26542;50.836;5.356;2022-09-06T08:26:32;23.60;96.20
40822;DHT22;26542;50.836;5.356;2022-09-06T08:28:59;23.70;95.20
40822;DHT22;26542;50.836;5.356;2022-09-06T08:31:29;23.70;96.00
40822;DHT22;26542;50.836;5.356;2022-09-06T08:33:59;23.70;95.40
40822;DHT22;26542;50.836;5.356;2022-09-06T08:36:25;23.70;96.20
40822;DHT22;26542;50.836;5.356;2022-09-06T08:38:54;23.80;95.90
40822;DHT22;26542;50.836;5.356;2022-09-06T08:41:46;23.90;96.10
40822;DHT22;26542;50.836;5.356;2022-09-06T08:50:03;24.20;94.90
40822;DHT22;26542;50.836;5.356;2022-09-06T08:52:45;24.30;94.20
40822;DHT22;26542;50.836;5.356;2022-09-06T08:55:35;24.40;94.70
40822;DHT22;26542;50.836;5.356;2022-09-06T08:58:38;24.40;94.40
40822;DHT22;26542;50.836;5.356;2022-09-06T09:01:10;24.60;94.40
40822;DHT22;26542;50.836;5.356;2022-09-06T09:03:39;24.80;94.70
40822;DHT22;26542;50.836;5.356;2022-09-06T09:06:07;24.90;94.40
40822;DHT22;26542;50.836;5.356;2022-09-06T09:08:42;25.00;93.40
40822;DHT22;26542;50.836;5.356;2022-09-06T09:11:18;25.10;93.30
40822;DHT22;26542;50.836;5.356;2022-09-06T09:16:20;25.10;93.40
40822;DHT22;26542;50.836;5.356;2022-09-06T09:18:50;25.40;93.80
40822;DHT22;26542;50.836;5.356;2022-09-06T09:21:22;25.50;92.20
40822;DHT22;26542;50.836;5.356;2022-09-06T09:23:53;25.60;92.60
40822;DHT22;26542;50.836;5.356;2022-09-06T09:26:22;25.50;92.40
40822;DHT22;26542;50.836;5.356;2022-09-06T09:29:21;25.60;92.00
40822;DHT22;26542;50.836;5.356;2022-09-06T09:31:49;25.60;92.20
40822;DHT22;26542;50.836;5.356;2022-09-06T09:34:32;25.60;92.70
40822;DHT22;26542;50.836;5.356;2022-09-06T09:37:24;25.90;92.00
40822;DHT22;26542;50.836;5.356;2022-09-06T09:39:55;26.10;92.00
40822;DHT22;26542;50.836;5.356;2022-09-06T09:44:54;26.40;91.80
40822;DHT22;26542;50.836;5.356;2022-09-06T09:47:30;26.50;90.40
40822;DHT22;26542;50.836;5.356;2022-09-06T09:49:59;26.50;91.00
40822;DHT22;26542;50.836;5.356;2022-09-06T09:52:30;26.50;90.60
40822;DHT22;26542;50.836;5.356;2022-09-06T09:55:05;26.60;90.50
40822;DHT22;26542;50.836;5.356;2022-09-06T09:57:43;26.60;90.00
40822;DHT22;26542;50.836;5.356;2022-09-06T10:00:09;26.60;89.40
40822;DHT22;26542;50.836;5.356;2022-09-06T10:02:42;26.60;89.40
40822;DHT22;26542;50.836;5.356;2022-09-06T10:05:16;26.70;88.00
40822;DHT22;26542;50.836;5.356;2022-09-06T10:07:51;26.70;87.50
40822;DHT22;26542;50.836;5.356;2022-09-06T10:10:33;26.80;87.30
40822;DHT22;26542;50.836;5.356;2022-09-06T10:15:39;27.00;84.80
40822;DHT22;26542;50.836;5.356;2022-09-06T10:21:15;27.20;84.20
40822;DHT22;26542;50.836;5.356;2022-09-06T10:29:03;27.50;84.50
40822;DHT22;26542;50.836;5.356;2022-09-06T10:37:31;27.60;79.90
40822;DHT22;26542;50.836;5.356;2022-09-06T10:40:11;27.60;80.50
40822;DHT22;26542;50.836;5.356;2022-09-06T10:42:49;27.60;81.30
40822;DHT22;26542;50.836;5.356;2022-09-06T10:51:16;27.80;78.10
40822;DHT22;26542;50.836;5.356;2022-09-06T10:59:32;28.10;77.80
40822;DHT22;26542;50.836;5.356;2022-09-06T11:04:43;28.20;79.70
40822;DHT22;26542;50.836;5.356;2022-09-06T11:09:56;28.40;78.50
40822;DHT22;26542;50.836;5.356;2022-09-06T11:12:35;28.40;77.80
40822;DHT22;26542;50.836;5.356;2022-09-06T11:15:04;28.40;75.90
40822;DHT22;26542;50.836;5.356;2022-09-06T11:17:56;28.60;78.10
40822;DHT22;26542;50.836;5.356;2022-09-06T11:20:33;28.70;77.40
40822;DHT22;26542;50.836;5.356;2022-09-06T11:28:55;28.80;75.60
40822;DHT22;26542;50.836;5.356;2022-09-06T11:31:27;28.70;74.30
40822;DHT22;26542;50.836;5.356;2022-09-06T11:34:11;28.70;75.90
40822;DHT22;26542;50.836;5.356;2022-09-06T11:40:04;28.80;76.20
40822;DHT22;26542;50.836;5.356;2022-09-06T12:00:44;29.40;73.60
40822;DHT22;26542;50.836;5.356;2022-09-06T12:04:12;29.50;74.00
40822;DHT22;26542;50.836;5.356;2022-09-06T12:07:07;29.60;74.60
40822;DHT22;26542;50.836;5.356;2022-09-06T12:09:38;29.90;75.50
40822;DHT22;26542;50.836;5.356;2022-09-06T12:12:07;29.90;74.30
40822;DHT22;26542;50.836;5.356;2022-09-06T12:14:40;29.80;73.80
40822;DHT22;26542;50.836;5.356;2022-09-06T12:19:55;29.90;73.10
40822;DHT22;26542;50.836;5.356;2022-09-06T12:25:16;30.30;72.40
40822;DHT22;26542;50.836;5.356;2022-09-06T12:30:35;30.30;72.30
40822;DHT22;26542;50.836;5.356;2022-09-06T12:33:06;30.40;74.50
40822;DHT22;26542;50.836;5.356;2022-09-06T12:35:32;30.40;72.50
40822;DHT22;26542;50.836;5.356;2022-09-06T12:38:01;30.40;72.30
40822;DHT22;26542;50.836;5.356;2022-09-06T12:40:32;30.50;72.30
40822;DHT22;26542;50.836;5.356;2022-09-06T12:43:02;30.70;71.60
40822;DHT22;26542;50.836;5.356;2022-09-06T12:45:31;30.80;72.00
40822;DHT22;26542;50.836;5.356;2022-09-06T12:48:09;31.00;72.20
40822;DHT22;26542;50.836;5.356;2022-09-06T12:50:35;31.30;71.10
40822;DHT22;26542;50.836;5.356;2022-09-06T12:53:04;31.50;69.60
40822;DHT22;26542;50.836;5.356;2022-09-06T12:55:41;31.50;70.00
40822;DHT22;26542;50.836;5.356;2022-09-06T12:58:09;31.60;69.80
40822;DHT22;26542;50.836;5.356;2022-09-06T13:00:42;31.70;69.30
40822;DHT22;26542;50.836;5.356;2022-09-06T13:03:42;31.70;68.30
40822;DHT22;26542;50.836;5.356;2022-09-06T13:06:39;31.80;68.50
40822;DHT22;26542;50.836;5.356;2022-09-06T13:09:17;31.70;67.50
40822;DHT22;26542;50.836;5.356;2022-09-06T13:11:50;31.80;68.00
40822;DHT22;26542;50.836;5.356;2022-09-06T13:14:20;32.00;69.70
40822;DHT22;26542;50.836;5.356;2022-09-06T13:16:50;32.10;69.00
40822;DHT22;26542;50.836;5.356;2022-09-06T13:19:38;32.10;69.30
40822;DHT22;26542;50.836;5.356;2022-09-06T13:22:07;32.40;68.40
40822;DHT22;26542;50.836;5.356;2022-09-06T13:27:36;32.60;66.80
40822;DHT22;26542;50.836;5.356;2022-09-06T13:30:09;32.80;67.70
40822;DHT22;26542;50.836;5.356;2022-09-06T13:32:43;32.80;66.30
40822;DHT22;26542;50.836;5.356;2022-09-06T13:35:10;33.10;66.20
40822;DHT22;26542;50.836;5.356;2022-09-06T13:37:37;33.20;64.10
40822;DHT22;26542;50.836;5.356;2022-09-06T13:40:35;33.00;63.20
40822;DHT22;26542;50.836;5.356;2022-09-06T13:43:01;33.00;64.90
40822;DHT22;26542;50.836;5.356;2022-09-06T13:45:36;33.10;64.90
40822;DHT22;26542;50.836;5.356;2022-09-06T13:48:02;33.00;62.80
40822;DHT22;26542;50.836;5.356;2022-09-06T13:50:34;32.90;63.60
40822;DHT22;26542;50.836;5.356;2022-09-06T13:53:18;32.90;63.40
40822;DHT22;26542;50.836;5.356;2022-09-06T13:55:53;32.80;63.00
40822;DHT22;26542;50.836;5.356;2022-09-06T13:58:22;32.60;63.10
40822;DHT22;26542;50.836;5.356;2022-09-06T14:00:52;32.60;63.00
40822;DHT22;26542;50.836;5.356;2022-09-06T14:03:23;32.60;62.50
40822;DHT22;26542;50.836;5.356;2022-09-06T14:05:53;32.60;62.80
40822;DHT22;26542;50.836;5.356;2022-09-06T14:08:19;32.50;62.70
40822;DHT22;26542;50.836;5.356;2022-09-06T14:10:55;32.60;63.60
40822;DHT22;26542;50.836;5.356;2022-09-06T14:13:27;32.60;63.80
40822;DHT22;26542;50.836;5.356;2022-09-06T14:16:02;32.70;62.60
40822;DHT22;26542;50.836;5.356;2022-09-06T14:21:30;32.60;63.50
40822;DHT22;26542;50.836;5.356;2022-09-06T14:23:55;32.70;63.70
40822;DHT22;26542;50.836;5.356;2022-09-06T14:26:22;32.80;63.10
40822;DHT22;26542;50.836;5.356;2022-09-06T14:28:48;32.90;63.00
40822;DHT22;26542;50.836;5.356;2022-09-06T14:31:22;32.80;59.90
40822;DHT22;26542;50.836;5.356;2022-09-06T14:33:50;32.80;61.40
40822;DHT22;26542;50.836;5.356;2022-09-06T14:36:20;32.80;60.90
40822;DHT22;26542;50.836;5.356;2022-09-06T14:38:49;32.90;61.30
40822;DHT22;26542;50.836;5.356;2022-09-06T14:41:16;32.80;61.30
40822;DHT22;26542;50.836;5.356;2022-09-06T14:43:46;32.90;60.90
40822;DHT22;26542;50.836;5.356;2022-09-06T14:46:15;32.90;62.20
40822;DHT22;26542;50.836;5.356;2022-09-06T14:48:42;33.00;62.10
40822;DHT22;26542;50.836;5.356;2022-09-06T14:51:15;33.10;62.10
40822;DHT22;26542;50.836;5.356;2022-09-06T14:53:48;33.20;62.90
40822;DHT22;26542;50.836;5.356;2022-09-06T14:56:16;33.30;61.50
40822;DHT22;26542;50.836;5.356;2022-09-06T14:58:44;33.40;62.10
40822;DHT22;26542;50.836;5.356;2022-09-06T15:01:19;33.50;61.20
40822;DHT22;26542;50.836;5.356;2022-09-06T15:03:47;33.50;60.50
40822;DHT22;26542;50.836;5.356;2022-09-06T15:06:16;33.50;61.10
40822;DHT22;26542;50.836;5.356;2022-09-06T15:08:42;33.40;60.20
40822;DHT22;26542;50.836;5.356;2022-09-06T15:11:27;33.40;59.90
40822;DHT22;26542;50.836;5.356;2022-09-06T15:13:57;33.40;60.30
40822;DHT22;26542;50.836;5.356;2022-09-06T15:16:24;33.40;59.40
40822;DHT22;26542;50.836;5.356;2022-09-06T15:18:53;33.40;60.00
40822;DHT22;26542;50.836;5.356;2022-09-06T15:21:21;33.40;59.60
40822;DHT22;26542;50.836;5.356;2022-09-06T15:23:47;33.40;61.10
40822;DHT22;26542;50.836;5.356;2022-09-06T15:26:14;33.30;60.20
40822;DHT22;26542;50.836;5.356;2022-09-06T15:28:40;33.20;60.10
40822;DHT22;26542;50.836;5.356;2022-09-06T15:31:12;33.30;60.90
40822;DHT22;26542;50.836;5.356;2022-09-06T15:33:40;33.30;60.10
40822;DHT22;26542;50.836;5.356;2022-09-06T15:36:08;33.20;61.10
40822;DHT22;26542;50.836;5.356;2022-09-06T15:43:41;33.20;60.00
40822;DHT22;26542;50.836;5.356;2022-09-06T15:46:12;33.20;61.10
40822;DHT22;26542;50.836;5.356;2022-09-06T15:48:43;33.10;61.20
40822;DHT22;26542;50.836;5.356;2022-09-06T15:51:11;33.00;61.30
40822;DHT22;26542;50.836;5.356;2022-09-06T15:53:37;32.90;61.80
40822;DHT22;26542;50.836;5.356;2022-09-06T15:56:04;32.70;63.10
40822;DHT22;26542;50.836;5.356;2022-09-06T15:58:33;32.70;62.60
40822;DHT22;26542;50.836;5.356;2022-09-06T16:01:07;32.60;63.70
40822;DHT22;26542;50.836;5.356;2022-09-06T16:03:36;32.50;64.00
40822;DHT22;26542;50.836;5.356;2022-09-06T16:06:10;32.40;64.60
40822;DHT22;26542;50.836;5.356;2022-09-06T16:09:06;32.40;65.00
40822;DHT22;26542;50.836;5.356;2022-09-06T16:11:33;32.50;64.00
40822;DHT22;26542;50.836;5.356;2022-09-06T16:14:05;32.50;63.30
40822;DHT22;26542;50.836;5.356;2022-09-06T16:16:31;32.60;61.50
40822;DHT22;26542;50.836;5.356;2022-09-06T16:18:58;32.70;62.90
40822;DHT22;26542;50.836;5.356;2022-09-06T16:21:29;32.70;62.10
40822;DHT22;26542;50.836;5.356;2022-09-06T16:24:11;32.70;62.30
40822;DHT22;26542;50.836;5.356;2022-09-06T16:26:45;32.70;61.90
40822;DHT22;26542;50.836;5.356;2022-09-06T16:29:16;32.70;61.70
40822;DHT22;26542;50.836;5.356;2022-09-06T16:31:42;32.60;61.40
40822;DHT22;26542;50.836;5.356;2022-09-06T16:34:09;32.60;62.70
40822;DHT22;26542;50.836;5.356;2022-09-06T16:36:58;32.40;62.40
40822;DHT22;26542;50.836;5.356;2022-09-06T16:39:35;32.30;64.00
40822;DHT22;26542;50.836;5.356;2022-09-06T16:42:01;32.20;62.60
40822;DHT22;26542;50.836;5.356;2022-09-06T16:44:30;32.10;63.40
40822;DHT22;26542;50.836;5.356;2022-09-06T16:46:55;32.20;62.00
40822;DHT22;26542;50.836;5.356;2022-09-06T16:49:25;32.10;62.90
40822;DHT22;26542;50.836;5.356;2022-09-06T16:52:00;32.00;64.30
40822;DHT22;26542;50.836;5.356;2022-09-06T16:54:27;31.90;64.90
40822;DHT22;26542;50.836;5.356;2022-09-06T16:56:53;31.70;65.30
40822;DHT22;26542;50.836;5.356;2022-09-06T16:59:19;31.70;65.10
40822;DHT22;26542;50.836;5.356;2022-09-06T17:01:46;31.70;65.20
40822;DHT22;26542;50.836;5.356;2022-09-06T17:04:17;31.60;65.20
40822;DHT22;26542;50.836;5.356;2022-09-06T17:06:44;31.60;66.10
40822;DHT22;26542;50.836;5.356;2022-09-06T17:09:14;31.50;65.70
40822;DHT22;26542;50.836;5.356;2022-09-06T17:11:41;31.50;66.10
40822;DHT22;26542;50.836;5.356;2022-09-06T17:14:07;31.60;64.00
40822;DHT22;26542;50.836;5.356;2022-09-06T17:16:32;31.50;63.70
40822;DHT22;26542;50.836;5.356;2022-09-06T17:19:17;31.40;63.30
40822;DHT22;26542;50.836;5.356;2022-09-06T17:21:46;31.20;64.00
40822;DHT22;26542;50.836;5.356;2022-09-06T17:24:12;31.00;64.60
40822;DHT22;26542;50.836;5.356;2022-09-06T17:26:38;30.80;65.40
40822;DHT22;26542;50.836;5.356;2022-09-06T17:29:05;30.60;67.20
40822;DHT22;26542;50.836;5.356;2022-09-06T17:31:36;30.60;67.50
40822;DHT22;26542;50.836;5.356;2022-09-06T17:34:03;30.50;67.70
40822;DHT22;26542;50.836;5.356;2022-09-06T17:36:30;30.50;68.00
40822;DHT22;26542;50.836;5.356;2022-09-06T17:39:06;30.30;69.80
40822;DHT22;26542;50.836;5.356;2022-09-06T17:41:47;30.20;70.10
40822;DHT22;26542;50.836;5.356;2022-09-06T17:44:19;30.10;70.60
40822;DHT22;26542;50.836;5.356;2022-09-06T17:46:45;30.10;70.90
40822;DHT22;26542;50.836;5.356;2022-09-06T17:49:12;29.80;71.30
40822;DHT22;26542;50.836;5.356;2022-09-06T17:51:39;29.70;72.20
40822;DHT22;26542;50.836;5.356;2022-09-06T17:54:05;29.60;72.60
40822;DHT22;26542;50.836;5.356;2022-09-06T17:56:32;29.50;73.70
40822;DHT22;26542;50.836;5.356;2022-09-06T17:59:01;29.30;74.80